sensor_id;sensor_type;location;lat;lon;timestamp;temperature;humidity
8711;DHT22;4392;47.400;8.062;2022-09-16T00:01:17;20.10;99.90
8711;DHT22;4392;47.400;8.062;2022-09-16T00:03:43;20.20;99.90
8711;DHT22;4392;47.400;8.062;2022-09-16T00:06:28;20.30;99.90
8711;DHT22;4392;47.400;8.062;2022-09-16T00:08:56;20.40;99.90
8711;DHT22;4392;47.400;8.062;2022-09-16T00:11:24;20.40;99.90
8711;DHT22;4392;47.400;8.062;2022-09-16T00:13:50;20.40;99.90
8711;DHT22;4392;47.400;8.062;2022-09-16T00:16:23;20.50;99.90
8711;DHT22;4392;47.400;8.062;2022-09-16T00:18:54;20.40;99.90
8711;DHT22;4392;47.400;8.062;2022-09-16T00:21:21;20.40;99.90
8711;DHT22;4392;47.400;8.062;2022-09-16T00:23:47;20.50;99.90
8711;DHT22;4392;47.400;8.062;2022-09-16T00:26:13;20.40;99.90
8711;DHT22;4392;47.400;8.062;2022-09-16T00:28:39;20.40;99.90
8711;DHT22;4392;47.400;8.062;2022-09-16T00:31:05;20.50;99.90
8711;DHT22;4392;47.400;8.062;2022-09-16T00:33:31;20.50;99.90
8711;DHT22;4392;47.400;8.062;2022-09-16T00:36:09;20.30;99.90
8711;DHT22;4392;47.400;8.062;2022-09-16T00:38:36;20.10;99.90
8711;DHT22;4392;47.400;8.062;2022-09-16T00:41:02;19.90;99.90
8711;DHT22;4392;47.400;8.062;2022-09-16T00:43:44;19.80;99.90
8711;DHT22;4392;47.400;8.062;2022-09-16T00:46:10;19.80;99.90
8711;DHT22;4392;47.400;8.062;2022-09-16T00:48:36;19.70;99.90
8711;DHT22;4392;47.400;8.062;2022-09-16T00:51:05;19.70;99.90
8711;DHT22;4392;47.400;8.062;2022-09-16T00:53:55;19.60;99.90
8711;DHT22;4392;47.400;8.062;2022-09-16T00:56:24;19.60;99.90
8711;DHT22;4392;47.400;8.062;2022-09-16T00:59:13;19.50;99.90
8711;DHT22;4392;47.400;8.062;2022-09-16T01:01:40;19.40;99.90
8711;DHT22;4392;47.400;8.062;2022-09-16T01:04:22;19.30;99.90
8711;DHT22;4392;47.400;8.062;2022-09-16T01:06:50;19.20;99.90
8711;DHT22;4392;47.400;8.062;2022-09-16T01:09:17;19.20;99.90
8711;DHT22;4392;47.400;8.062;2022-09-16T01:11:44;19.20;99.90
8711;DHT22;4392;47.400;8.062;2022-09-16T01:14:10;19.10;99.90
8711;DHT22;4392;47.400;8.062;2022-09-16T01:17:14;19.20;99.90
8711;DHT22;4392;47.400;8.062;2022-09-16T01:20:02;19.20;99.90
8711;DHT22;4392;47.400;8.062;2022-09-16T01:25:52;19.10;99.90
8711;DHT22;4392;47.400;8.062;2022-09-16T01:34:21;19.00;99.90
8711;DHT22;4392;47.400;8.062;2022-09-16T01:37:02;19.00;99.90
8711;DHT22;4392;47.400;8.062;2022-09-16T01:39:48;19.00;99.90
8711;DHT22;4392;47.400;8.062;2022-09-16T01:42:35;19.00;99.90
8711;DHT22;4392;47.400;8.062;2022-09-16T01:45:16;18.90;99.90
8711;DHT22;4392;47.400;8.062;2022-09-16T01:48:08;19.00;99.90
8711;DHT22;4392;47.400;8.062;2022-09-16T01:56:11;18.90;99.90
8711;DHT22;4392;47.400;8.062;2022-09-16T01:58:55;18.90;99.90
8711;DHT22;4392;47.400;8.062;2022-09-16T02:01:33;18.90;99.90
8711;DHT22;4392;47.400;8.062;2022-09-16T02:04:21;18.90;99.90
8711;DHT22;4392;47.400;8.062;2022-09-16T02:06:51;18.80;99.90
8711;DHT22;4392;47.400;8.062;2022-09-16T02:10:07;18.80;99.90
8711;DHT22;4392;47.400;8.062;2022-09-16T02:12:16;18.80;99.90
8711;DHT22;4392;47.400;8.062;2022-09-16T02:14:44;19.00;99.90
8711;DHT22;4392;47.400;8.062;2022-09-16T02:17:14;19.10;99.90
8711;DHT22;4392;47.400;8.062;2022-09-16T02:19:45;19.50;99.90
8711;DHT22;4392;47.400;8.062;2022-09-16T02:22:23;19.40;99.90
8711;DHT22;4392;47.400;8.062;2022-09-16T02:24:51;19.30;99.90
8711;DHT22;4392;47.400;8.062;2022-09-16T02:27:19;19.10;99.90
8711;DHT22;4392;47.400;8.062;2022-09-16T02:29:59;19.00;99.90
8711;DHT22;4392;47.400;8.062;2022-09-16T02:32:27;19.00;99.90
8711;DHT22;4392;47.400;8.062;2022-09-16T02:34:55;18.90;99.90
8711;DHT22;4392;47.400;8.062;2022-09-16T02:37:33;18.90;99.90
8711;DHT22;4392;47.400;8.062;2022-09-16T02:40:03;18.90;99.90
8711;DHT22;4392;47.400;8.062;2022-09-16T02:42:32;18.80;99.90
8711;DHT22;4392;47.400;8.062;2022-09-16T02:44:58;18.80;99.90
8711;DHT22;4392;47.400;8.062;2022-09-16T02:47:28;18.80;99.90
8711;DHT22;4392;47.400;8.062;2022-09-16T02:50:03;18.70;99.90
8711;DHT22;4392;47.400;8.062;2022-09-16T02:55:36;18.70;99.90
8711;DHT22;4392;47.400;8.062;2022-09-16T02:58:28;18.90;99.90
8711;DHT22;4392;47.400;8.062;2022-09-16T03:00:55;19.20;99.90
8711;DHT22;4392;47.400;8.062;2022-09-16T03:03:23;19.10;99.90
8711;DHT22;4392;47.400;8.062;2022-09-16T03:08:33;18.80;99.90
8711;DHT22;4392;47.400;8.062;2022-09-16T03:11:19;18.80;99.90
8711;DHT22;4392;47.400;8.062;2022-09-16T03:14:03;18.60;99.90
8711;DHT22;4392;47.400;8.062;2022-09-16T03:27:36;18.40;99.90
8711;DHT22;4392;47.400;8.062;2022-09-16T03:30:07;18.40;99.90
8711;DHT22;4392;47.400;8.062;2022-09-16T03:37:49;18.40;99.90
8711;DHT22;4392;47.400;8.062;2022-09-16T03:40:16;19.00;99.90
8711;DHT22;4392;47.400;8.062;2022-09-16T03:42:44;19.30;99.90
8711;DHT22;4392;47.400;8.062;2022-09-16T03:45:14;19.50;99.90
8711;DHT22;4392;47.400;8.062;2022-09-16T03:47:42;19.60;99.90
8711;DHT22;4392;47.400;8.062;2022-09-16T03:50:08;19.70;99.90
8711;DHT22;4392;47.400;8.062;2022-09-16T03:52:34;19.80;99.90
8711;DHT22;4392;47.400;8.062;2022-09-16T03:55:00;19.80;99.90
8711;DHT22;4392;47.400;8.062;2022-09-16T03:57:26;19.80;99.90
8711;DHT22;4392;47.400;8.062;2022-09-16T03:59:53;19.90;99.90
8711;DHT22;4392;47.400;8.062;2022-09-16T04:02:19;19.90;99.90
8711;DHT22;4392;47.400;8.062;2022-09-16T04:04:45;20.00;99.90
8711;DHT22;4392;47.400;8.062;2022-09-16T04:07:11;20.00;99.90
8711;DHT22;4392;47.400;8.062;2022-09-16T04:09:36;20.00;99.90
8711;DHT22;4392;47.400;8.062;2022-09-16T04:12:03;20.00;99.90
8711;DHT22;4392;47.400;8.062;2022-09-16T04:14:30;20.00;99.90
8711;DHT22;4392;47.400;8.062;2022-09-16T04:16:55;20.00;99.90
8711;DHT22;4392;47.400;8.062;2022-09-16T04:19:21;20.00;99.90
8711;DHT22;4392;47.400;8.062;2022-09-16T04:21:47;20.00;99.90
8711;DHT22;4392;47.400;8.062;2022-09-16T04:24:13;20.00;99.90
8711;DHT22;4392;47.400;8.062;2022-09-16T04:26:40;20.10;99.90
8711;DHT22;4392;47.400;8.062;2022-09-16T04:29:06;20.10;99.90
8711;DHT22;4392;47.400;8.062;2022-09-16T04:31:32;20.00;99.90
8711;DHT22;4392;47.400;8.062;2022-09-16T04:34:00;20.00;99.90
8711;DHT22;4392;47.400;8.062;2022-09-16T04:36:26;20.00;99.90
8711;DHT22;4392;47.400;8.062;2022-09-16T04:38:52;20.10;99.90
8711;DHT22;4392;47.400;8.062;2022-09-16T04:41:20;20.10;99.90
8711;DHT22;4392;47.400;8.062;2022-09-16T04:43:52;20.10;99.90
8711;DHT22;4392;47.400;8.062;2022-09-16T04:46:18;20.10;99.90
8711;DHT22;4392;47.400;8.062;2022-09-16T04:48:48;20.10;99.90
8711;DHT22;4392;47.400;8.062;2022-09-16T04:51:15;20.10;99.90
8711;DHT22;4392;47.400;8.062;2022-09-16T04:53:42;20.10;99.90
8711;DHT22;4392;47.400;8.062;2022-09-16T04:56:17;20.10;99.90
8711;DHT22;4392;47.400;8.062;2022-09-16T04:59:03;20.10;99.90
8711;DHT22;4392;47.400;8.062;2022-09-16T05:01:32;20.10;99.90
8711;DHT22;4392;47.400;8.062;2022-09-16T05:04:00;20.10;99.90
8711;DHT22;4392;47.400;8.062;2022-09-16T05:06:40;20.10;99.90
8711;DHT22;4392;47.400;8.062;2022-09-16T05:09:07;20.10;99.90
8711;DHT22;4392;47.400;8.062;2022-09-16T05:11:36;20.10;99.90
8711;DHT22;4392;47.400;8.062;2022-09-16T05:14:06;20.10;99.90
8711;DHT22;4392;47.400;8.062;2022-09-16T05:16:32;20.10;99.90
8711;DHT22;4392;47.400;8.062;2022-09-16T05:19:00;19.90;99.90
8711;DHT22;4392;47.400;8.062;2022-09-16T05:21:31;19.60;99.90
8711;DHT22;4392;47.400;8.062;2022-09-16T05:24:02;19.50;99.90
8711;DHT22;4392;47.400;8.062;2022-09-16T05:26:30;19.40;99.90
8711;DHT22;4392;47.400;8.062;2022-09-16T05:28:59;19.30;99.90
8711;DHT22;4392;47.400;8.062;2022-09-16T05:31:28;19.20;99.90
8711;DHT22;4392;47.400;8.062;2022-09-16T05:34:03;19.10;99.90
8711;DHT22;4392;47.400;8.062;2022-09-16T05:36:36;19.10;99.90
8711;DHT22;4392;47.400;8.062;2022-09-16T05:39:05;19.10;99.90
8711;DHT22;4392;47.400;8.062;2022-09-16T05:41:32;19.10;99.90
8711;DHT22;4392;47.400;8.062;2022-09-16T05:43:59;19.20;99.90
8711;DHT22;4392;47.400;8.062;2022-09-16T05:46:26;19.30;99.90
8711;DHT22;4392;47.400;8.062;2022-09-16T05:48:52;19.30;99.90
8711;DHT22;4392;47.400;8.062;2022-09-16T05:51:22;19.30;99.90
8711;DHT22;4392;47.400;8.062;2022-09-16T05:53:49;19.40;99.90
8711;DHT22;4392;47.400;8.062;2022-09-16T05:56:29;19.40;99.90
8711;DHT22;4392;47.400;8.062;2022-09-16T05:59:01;19.60;99.90
8711;DHT22;4392;47.400;8.062;2022-09-16T06:01:29;19.50;99.90
8711;DHT22;4392;47.400;8.062;2022-09-16T06:03:55;19.60;99.90
8711;DHT22;4392;47.400;8.062;2022-09-16T06:06:41;19.80;99.90
8711;DHT22;4392;47.400;8.062;2022-09-16T06:09:25;19.90;99.90
8711;DHT22;4392;47.400;8.062;2022-09-16T06:11:52;19.90;99.90
8711;DHT22;4392;47.400;8.062;2022-09-16T06:14:18;19.80;99.90
8711;DHT22;4392;47.400;8.062;2022-09-16T06:16:45;19.70;99.90
8711;DHT22;4392;47.400;8.062;2022-09-16T06:19:13;19.80;99.90
8711;DHT22;4392;47.400;8.062;2022-09-16T06:21:40;19.80;99.90
8711;DHT22;4392;47.400;8.062;2022-09-16T06:24:06;19.80;99.90
8711;DHT22;4392;47.400;8.062;2022-09-16T06:26:34;19.80;99.90
8711;DHT22;4392;47.400;8.062;2022-09-16T06:29:00;19.70;99.90
8711;DHT22;4392;47.400;8.062;2022-09-16T06:31:27;19.50;99.90
8711;DHT22;4392;47.400;8.062;2022-09-16T06:33:54;19.40;99.90
8711;DHT22;4392;47.400;8.062;2022-09-16T06:36:40;19.20;99.90
8711;DHT22;4392;47.400;8.062;2022-09-16T06:39:06;19.10;99.90
8711;DHT22;4392;47.400;8.062;2022-09-16T06:41:33;19.20;99.90
8711;DHT22;4392;47.400;8.062;2022-09-16T06:43:59;19.40;99.90
8711;DHT22;4392;47.400;8.062;2022-09-16T06:46:27;19.60;99.90
8711;DHT22;4392;47.400;8.062;2022-09-16T06:48:55;19.70;99.90
8711;DHT22;4392;47.400;8.062;2022-09-16T06:51:23;19.70;99.90
8711;DHT22;4392;47.400;8.062;2022-09-16T06:53:50;19.80;99.90
8711;DHT22;4392;47.400;8.062;2022-09-16T06:56:19;19.90;99.90
8711;DHT22;4392;47.400;8.062;2022-09-16T06:59:02;19.90;99.90
8711;DHT22;4392;47.400;8.062;2022-09-16T07:01:29;19.90;99.90
8711;DHT22;4392;47.400;8.062;2022-09-16T07:03:57;19.90;99.90
8711;DHT22;4392;47.400;8.062;2022-09-16T07:09:32;20.00;99.90
8711;DHT22;4392;47.400;8.062;2022-09-16T07:11:58;20.00;99.90
8711;DHT22;4392;47.400;8.062;2022-09-16T07:14:25;20.00;99.90
8711;DHT22;4392;47.400;8.062;2022-09-16T07:16:51;20.00;99.90
8711;DHT22;4392;47.400;8.062;2022-09-16T07:19:17;20.10;99.90
8711;DHT22;4392;47.400;8.062;2022-09-16T07:21:43;20.10;99.90
8711;DHT22;4392;47.400;8.062;2022-09-16T07:24:11;20.10;99.90
8711;DHT22;4392;47.400;8.062;2022-09-16T07:26:38;20.10;99.90
8711;DHT22;4392;47.400;8.062;2022-09-16T07:29:06;20.10;99.90
8711;DHT22;4392;47.400;8.062;2022-09-16T07:31:36;20.10;99.90
8711;DHT22;4392;47.400;8.062;2022-09-16T07:34:03;20.20;99.90
8711;DHT22;4392;47.400;8.062;2022-09-16T07:36:33;20.20;99.90
8711;DHT22;4392;47.400;8.062;2022-09-16T07:38:59;20.20;99.90
8711;DHT22;4392;47.400;8.062;2022-09-16T07:41:31;20.20;99.90
8711;DHT22;4392;47.400;8.062;2022-09-16T07:43:58;20.20;99.90
8711;DHT22;4392;47.400;8.062;2022-09-16T07:46:27;20.20;99.90
8711;DHT22;4392;47.400;8.062;2022-09-16T07:48:53;20.20;99.90
8711;DHT22;4392;47.400;8.062;2022-09-16T07:51:22;20.20;99.90
8711;DHT22;4392;47.400;8.062;2022-09-16T07:54:02;20.20;99.90
8711;DHT22;4392;47.400;8.062;2022-09-16T07:56:32;20.20;99.90
8711;DHT22;4392;47.400;8.062;2022-09-16T07:59:00;20.20;99.90
8711;DHT22;4392;47.400;8.062;2022-09-16T08:01:27;20.20;99.90
8711;DHT22;4392;47.400;8.062;2022-09-16T08:03:54;20.20;99.90
8711;DHT22;4392;47.400;8.062;2022-09-16T08:06:25;20.30;99.90
8711;DHT22;4392;47.400;8.062;2022-09-16T08:08:55;20.30;99.90
8711;DHT22;4392;47.400;8.062;2022-09-16T08:11:22;20.30;99.90
8711;DHT22;4392;47.400;8.062;2022-09-16T08:13:48;20.30;99.90
8711;DHT22;4392;47.400;8.062;2022-09-16T08:16:19;20.40;99.90
8711;DHT22;4392;47.400;8.062;2022-09-16T08:18:48;20.40;99.90
8711;DHT22;4392;47.400;8.062;2022-09-16T08:21:17;20.40;99.90
8711;DHT22;4392;47.400;8.062;2022-09-16T08:23:43;20.40;99.90
8711;DHT22;4392;47.400;8.062;2022-09-16T08:26:10;20.40;99.90
8711;DHT22;4392;47.400;8.062;2022-09-16T08:28:37;20.40;99.90
8711;DHT22;4392;47.400;8.062;2022-09-16T08:31:04;20.50;99.90
8711;DHT22;4392;47.400;8.062;2022-09-16T08:33:31;20.50;99.90
8711;DHT22;4392;47.400;8.062;2022-09-16T08:36:01;20.50;99.90
8711;DHT22;4392;47.400;8.062;2022-09-16T08:38:27;20.50;99.90
8711;DHT22;4392;47.400;8.062;2022-09-16T08:46:34;20.50;99.90
8711;DHT22;4392;47.400;8.062;2022-09-16T08:49:12;20.50;99.90
8711;DHT22;4392;47.400;8.062;2022-09-16T08:51:41;20.50;99.90
8711;DHT22;4392;47.400;8.062;2022-09-16T08:54:21;20.40;99.90
8711;DHT22;4392;47.400;8.062;2022-09-16T08:56:54;20.20;99.90
8711;DHT22;4392;47.400;8.062;2022-09-16T08:59:34;20.00;97.90
8711;DHT22;4392;47.400;8.062;2022-09-16T09:02:31;19.30;98.90
8711;DHT22;4392;47.400;8.062;2022-09-16T09:04:59;19.00;99.90
8711;DHT22;4392;47.400;8.062;2022-09-16T09:08:03;18.90;99.90
8711;DHT22;4392;47.400;8.062;2022-09-16T09:15:56;18.90;99.90
8711;DHT22;4392;47.400;8.062;2022-09-16T09:18:35;18.80;99.90
8711;DHT22;4392;47.400;8.062;2022-09-16T09:26:51;18.70;99.90
8711;DHT22;4392;47.400;8.062;2022-09-16T09:40:31;18.60;99.90
8711;DHT22;4392;47.400;8.062;2022-09-16T09:43:17;18.70;99.90
8711;DHT22;4392;47.400;8.062;2022-09-16T09:49:01;18.70;99.90
8711;DHT22;4392;47.400;8.062;2022-09-16T09:51:39;18.50;99.90
8711;DHT22;4392;47.400;8.062;2022-09-16T09:54:32;18.50;99.90
8711;DHT22;4392;47.400;8.062;2022-09-16T10:02:40;18.50;99.90
8711;DHT22;4392;47.400;8.062;2022-09-16T10:10:52;18.70;99.90
8711;DHT22;4392;47.400;8.062;2022-09-16T10:13:19;18.70;99.90
8711;DHT22;4392;47.400;8.062;2022-09-16T10:15:47;18.70;99.90
8711;DHT22;4392;47.400;8.062;2022-09-16T10:18:39;18.80;99.90
8711;DHT22;4392;47.400;8.062;2022-09-16T10:21:11;18.80;99.90
8711;DHT22;4392;47.400;8.062;2022-09-16T10:23:39;18.80;99.90
8711;DHT22;4392;47.400;8.062;2022-09-16T10:26:06;18.70;99.90
8711;DHT22;4392;47.400;8.062;2022-09-16T10:28:33;18.80;99.90
8711;DHT22;4392;47.400;8.062;2022-09-16T10:31:00;18.80;99.90
8711;DHT22;4392;47.400;8.062;2022-09-16T10:36:00;18.60;99.90
8711;DHT22;4392;47.400;8.062;2022-09-16T10:38:43;18.60;99.90
8711;DHT22;4392;47.400;8.062;2022-09-16T10:41:23;18.50;99.90
8711;DHT22;4392;47.400;8.062;2022-09-16T10:44:01;18.60;99.90
8711;DHT22;4392;47.400;8.062;2022-09-16T10:46:28;18.70;99.90
8711;DHT22;4392;47.400;8.062;2022-09-16T10:48:59;18.80;99.90
8711;DHT22;4392;47.400;8.062;2022-09-16T10:51:30;18.90;99.90
8711;DHT22;4392;47.400;8.062;2022-09-16T10:54:01;18.90;99.90
8711;DHT22;4392;47.400;8.062;2022-09-16T10:56:31;18.90;99.90
8711;DHT22;4392;47.400;8.062;2022-09-16T10:59:20;18.90;99.90
8711;DHT22;4392;47.400;8.062;2022-09-16T11:02:29;18.90;98.20
8711;DHT22;4392;47.400;8.062;2022-09-16T11:07:38;18.60;95.90
8711;DHT22;4392;47.400;8.062;2022-09-16T11:20:59;18.30;95.80
8711;DHT22;4392;47.400;8.062;2022-09-16T11:23:32;18.50;96.10
8711;DHT22;4392;47.400;8.062;2022-09-16T11:26:34;18.60;95.60
8711;DHT22;4392;47.400;8.062;2022-09-16T11:35:22;18.60;94.50
8711;DHT22;4392;47.400;8.062;2022-09-16T11:38:19;18.70;92.70
8711;DHT22;4392;47.400;8.062;2022-09-16T11:40:58;18.60;92.40
8711;DHT22;4392;47.400;8.062;2022-09-16T11:55:08;18.70;91.80
8711;DHT22;4392;47.400;8.062;2022-09-16T11:58:50;18.90;91.80
8711;DHT22;4392;47.400;8.062;2022-09-16T12:01:01;18.80;90.10
8711;DHT22;4392;47.400;8.062;2022-09-16T12:03:47;18.70;91.60
8711;DHT22;4392;47.400;8.062;2022-09-16T12:06:20;18.70;91.80
8711;DHT22;4392;47.400;8.062;2022-09-16T12:08:58;18.80;90.30
8711;DHT22;4392;47.400;8.062;2022-09-16T12:14:12;18.60;90.40
8711;DHT22;4392;47.400;8.062;2022-09-16T12:17:19;18.60;90.20
8711;DHT22;4392;47.400;8.062;2022-09-16T12:19:57;18.60;91.10
8711;DHT22;4392;47.400;8.062;2022-09-16T12:30:43;18.70;89.40
8711;DHT22;4392;47.400;8.062;2022-09-16T12:38:45;18.70;86.30
8711;DHT22;4392;47.400;8.062;2022-09-16T12:53:20;18.60;85.40
8711;DHT22;4392;47.400;8.062;2022-09-16T13:02:04;18.50;85.50
8711;DHT22;4392;47.400;8.062;2022-09-16T13:04:41;18.50;84.80
8711;DHT22;4392;47.400;8.062;2022-09-16T13:07:38;18.50;85.60
8711;DHT22;4392;47.400;8.062;2022-09-16T13:10:16;18.50;84.60
8711;DHT22;4392;47.400;8.062;2022-09-16T13:12:52;18.40;82.30
8711;DHT22;4392;47.400;8.062;2022-09-16T13:15:34;18.30;82.00
8711;DHT22;4392;47.400;8.062;2022-09-16T13:20:49;18.30;79.40
8711;DHT22;4392;47.400;8.062;2022-09-16T13:23:30;18.30;77.90
8711;DHT22;4392;47.400;8.062;2022-09-16T13:26:05;18.20;76.90
8711;DHT22;4392;47.400;8.062;2022-09-16T13:31:14;18.20;79.30
8711;DHT22;4392;47.400;8.062;2022-09-16T13:33:47;18.10;80.50
8711;DHT22;4392;47.400;8.062;2022-09-16T13:38:47;18.20;81.60
8711;DHT22;4392;47.400;8.062;2022-09-16T13:41:37;18.00;82.20
8711;DHT22;4392;47.400;8.062;2022-09-16T13:52:33;18.30;85.60
8711;DHT22;4392;47.400;8.062;2022-09-16T13:55:02;18.40;86.70
8711;DHT22;4392;47.400;8.062;2022-09-16T13:57:41;18.40;86.60
8711;DHT22;4392;47.400;8.062;2022-09-16T14:00:36;18.50;90.10
8711;DHT22;4392;47.400;8.062;2022-09-16T14:14:02;19.00;84.60
8711;DHT22;4392;47.400;8.062;2022-09-16T14:16:31;19.10;87.00
8711;DHT22;4392;47.400;8.062;2022-09-16T14:21:30;18.90;87.00
8711;DHT22;4392;47.400;8.062;2022-09-16T14:24:15;19.00;85.80
8711;DHT22;4392;47.400;8.062;2022-09-16T14:26:55;19.00;87.20
8711;DHT22;4392;47.400;8.062;2022-09-16T14:29:23;19.00;85.40
8711;DHT22;4392;47.400;8.062;2022-09-16T14:31:51;19.00;86.70
8711;DHT22;4392;47.400;8.062;2022-09-16T14:36:52;18.90;89.10
8711;DHT22;4392;47.400;8.062;2022-09-16T14:39:20;18.90;84.90
8711;DHT22;4392;47.400;8.062;2022-09-16T14:42:04;19.00;84.70
8711;DHT22;4392;47.400;8.062;2022-09-16T14:44:33;19.10;83.70
8711;DHT22;4392;47.400;8.062;2022-09-16T14:49:37;19.00;83.10
8711;DHT22;4392;47.400;8.062;2022-09-16T14:52:03;19.10;84.20
8711;DHT22;4392;47.400;8.062;2022-09-16T14:54:30;19.20;82.60
8711;DHT22;4392;47.400;8.062;2022-09-16T14:59:31;18.90;83.00
8711;DHT22;4392;47.400;8.062;2022-09-16T15:02:04;18.90;82.60
8711;DHT22;4392;47.400;8.062;2022-09-16T15:04:35;19.00;81.90
8711;DHT22;4392;47.400;8.062;2022-09-16T15:07:16;19.00;81.60
8711;DHT22;4392;47.400;8.062;2022-09-16T15:09:51;19.10;81.60
8711;DHT22;4392;47.400;8.062;2022-09-16T15:12:24;19.30;81.20
8711;DHT22;4392;47.400;8.062;2022-09-16T15:14:50;19.50;79.20
8711;DHT22;4392;47.400;8.062;2022-09-16T15:17:18;19.40;78.50
8711;DHT22;4392;47.400;8.062;2022-09-16T15:19:50;19.40;77.30
8711;DHT22;4392;47.400;8.062;2022-09-16T15:22:18;19.00;78.30
8711;DHT22;4392;47.400;8.062;2022-09-16T15:24:46;19.20;79.30
8711;DHT22;4392;47.400;8.062;2022-09-16T15:27:22;19.30;80.50
8711;DHT22;4392;47.400;8.062;2022-09-16T15:29:55;19.10;79.00
8711;DHT22;4392;47.400;8.062;2022-09-16T15:32:22;18.80;79.60
8711;DHT22;4392;47.400;8.062;2022-09-16T15:35:22;18.70;88.50
8711;DHT22;4392;47.400;8.062;2022-09-16T15:37:49;19.00;90.10
8711;DHT22;4392;47.400;8.062;2022-09-16T15:40:22;18.80;83.50
8711;DHT22;4392;47.400;8.062;2022-09-16T15:43:03;18.60;83.90
8711;DHT22;4392;47.400;8.062;2022-09-16T15:45:34;18.70;84.40
8711;DHT22;4392;47.400;8.062;2022-09-16T15:48:05;18.80;94.10
8711;DHT22;4392;47.400;8.062;2022-09-16T15:51:04;19.00;91.40
8711;DHT22;4392;47.400;8.062;2022-09-16T15:56:07;18.60;88.10
8711;DHT22;4392;47.400;8.062;2022-09-16T15:58:35;18.40;90.10
8711;DHT22;4392;47.400;8.062;2022-09-16T16:03:49;18.30;91.60
8711;DHT22;4392;47.400;8.062;2022-09-16T16:06:15;18.00;92.10
8711;DHT22;4392;47.400;8.062;2022-09-16T16:11:44;18.10;99.90
8711;DHT22;4392;47.400;8.062;2022-09-16T16:14:11;18.70;99.90
8711;DHT22;4392;47.400;8.062;2022-09-16T16:16:37;18.80;99.90
8711;DHT22;4392;47.400;8.062;2022-09-16T16:19:04;18.90;99.90
8711;DHT22;4392;47.400;8.062;2022-09-16T16:21:31;18.90;94.50
8711;DHT22;4392;47.400;8.062;2022-09-16T16:23:57;19.00;99.90
8711;DHT22;4392;47.400;8.062;2022-09-16T16:26:23;19.00;99.90
8711;DHT22;4392;47.400;8.062;2022-09-16T16:28:49;19.30;99.90
8711;DHT22;4392;47.400;8.062;2022-09-16T16:31:17;19.50;99.90
8711;DHT22;4392;47.400;8.062;2022-09-16T16:33:46;19.70;99.30
8711;DHT22;4392;47.400;8.062;2022-09-16T16:36:14;19.50;90.90
8711;DHT22;4392;47.400;8.062;2022-09-16T16:38:40;19.30;94.20
8711;DHT22;4392;47.400;8.062;2022-09-16T16:41:09;19.50;94.20
8711;DHT22;4392;47.400;8.062;2022-09-16T16:43:39;19.50;92.40
8711;DHT22;4392;47.400;8.062;2022-09-16T16:46:08;19.70;93.30
8711;DHT22;4392;47.400;8.062;2022-09-16T16:48:35;19.50;90.70
8711;DHT22;4392;47.400;8.062;2022-09-16T16:51:05;19.40;85.90
8711;DHT22;4392;47.400;8.062;2022-09-16T16:53:38;19.40;90.70
8711;DHT22;4392;47.400;8.062;2022-09-16T16:56:09;19.30;90.00
8711;DHT22;4392;47.400;8.062;2022-09-16T16:58:36;19.50;89.80
8711;DHT22;4392;47.400;8.062;2022-09-16T17:01:35;19.60;90.50
8711;DHT22;4392;47.400;8.062;2022-09-16T17:04:03;19.70;90.00
8711;DHT22;4392;47.400;8.062;2022-09-16T17:06:33;19.70;85.30
8711;DHT22;4392;47.400;8.062;2022-09-16T17:09:09;19.60;86.80
8711;DHT22;4392;47.400;8.062;2022-09-16T17:11:37;19.70;85.90
8711;DHT22;4392;47.400;8.062;2022-09-16T17:14:14;19.80;85.90
8711;DHT22;4392;47.400;8.062;2022-09-16T17:16:42;19.80;85.80
8711;DHT22;4392;47.400;8.062;2022-09-16T17:19:15;19.80;85.50
8711;DHT22;4392;47.400;8.062;2022-09-16T17:22:02;19.70;81.10
8711;DHT22;4392;47.400;8.062;2022-09-16T17:24:40;19.70;82.60
8711;DHT22;4392;47.400;8.062;2022-09-16T17:27:06;19.60;80.10
8711;DHT22;4392;47.400;8.062;2022-09-16T17:29:32;19.50;75.10
8711;DHT22;4392;47.400;8.062;2022-09-16T17:31:58;19.60;83.20
8711;DHT22;4392;47.400;8.062;2022-09-16T17:34:27;19.60;80.10
8711;DHT22;4392;47.400;8.062;2022-09-16T17:36:53;19.70;81.60
8711;DHT22;4392;47.400;8.062;2022-09-16T17:39:20;19.60;80.30
8711;DHT22;4392;47.400;8.062;2022-09-16T17:41:48;19.80;80.40
8711;DHT22;4392;47.400;8.062;2022-09-16T17:44:15;19.80;79.10
8711;DHT22;4392;47.400;8.062;2022-09-16T17:46:42;19.90;78.00
8711;DHT22;4392;47.400;8.062;2022-09-16T17:49:17;19.80;77.10
8711;DHT22;4392;47.400;8.062;2022-09-16T17:51:44;19.60;72.30
8711;DHT22;4392;47.400;8.062;2022-09-16T17:54:11;19.60;73.80
8711;DHT22;4392;47.400;8.062;2022-09-16T17:56:39;19.50;72.30
8711;DHT22;4392;47.400;8.062;2022-09-16T17:59:09;19.60;76.50
8711;DHT22;4392;47.400;8.062;2022-09-16T18:01:39;19.50;73.20
8711;DHT22;4392;47.400;8.062;2022-09-16T18:04:07;19.50;73.60
8711;DHT22;4392;47.400;8.062;2022-09-16T18:06:39;19.50;73.00
8711;DHT22;4392;47.400;8.062;2022-09-16T18:09:08;19.60;74.90
8711;DHT22;4392;47.400;8.062;2022-09-16T18:11:35;19.50;71.40
8711;DHT22;4392;47.400;8.062;2022-09-16T18:14:05;19.50;72.10
8711;DHT22;4392;47.400;8.062;2022-09-16T18:16:35;19.50;75.10
8711;DHT22;4392;47.400;8.062;2022-09-16T18:19:01;19.60;74.80
8711;DHT22;4392;47.400;8.062;2022-09-16T18:21:28;19.60;75.00
8711;DHT22;4392;47.400;8.062;2022-09-16T18:23:57;19.60;74.30
8711;DHT22;4392;47.400;8.062;2022-09-16T18:26:25;19.60;74.40
8711;DHT22;4392;47.400;8.062;2022-09-16T18:28:52;19.60;74.50
8711;DHT22;4392;47.400;8.062;2022-09-16T18:31:20;19.60;73.30
8711;DHT22;4392;47.400;8.062;2022-09-16T18:33:50;19.40;72.20
8711;DHT22;4392;47.400;8.062;2022-09-16T18:36:17;19.40;74.60
8711;DHT22;4392;47.400;8.062;2022-09-16T18:38:43;19.50;74.20
8711;DHT22;4392;47.400;8.062;2022-09-16T18:41:17;19.20;73.60
8711;DHT22;4392;47.400;8.062;2022-09-16T18:43:51;19.10;73.80
8711;DHT22;4392;47.400;8.062;2022-09-16T18:46:24;19.00;74.90
8711;DHT22;4392;47.400;8.062;2022-09-16T18:48:57;18.90;75.00
8711;DHT22;4392;47.400;8.062;2022-09-16T18:51:32;18.70;75.70
8711;DHT22;4392;47.400;8.062;2022-09-16T18:54:00;18.90;75.50
8711;DHT22;4392;47.400;8.062;2022-09-16T18:56:29;18.90;75.00
8711;DHT22;4392;47.400;8.062;2022-09-16T18:59:12;18.90;76.60
8711;DHT22;4392;47.400;8.062;2022-09-16T19:01:39;18.70;75.50
8711;DHT22;4392;47.400;8.062;2022-09-16T19:04:08;18.70;76.10
8711;DHT22;4392;47.400;8.062;2022-09-16T19:06:40;18.60;77.10
8711;DHT22;4392;47.400;8.062;2022-09-16T19:09:41;18.50;76.70
8711;DHT22;4392;47.400;8.062;2022-09-16T19:12:27;18.50;76.50
8711;DHT22;4392;47.400;8.062;2022-09-16T19:14:54;18.60;80.10
8711;DHT22;4392;47.400;8.062;2022-09-16T19:17:20;18.70;76.50
8711;DHT22;4392;47.400;8.062;2022-09-16T19:19:47;18.40;75.80
8711;DHT22;4392;47.400;8.062;2022-09-16T19:22:16;18.20;76.60
8711;DHT22;4392;47.400;8.062;2022-09-16T19:24:43;18.10;77.20
8711;DHT22;4392;47.400;8.062;2022-09-16T19:27:17;18.10;76.70
8711;DHT22;4392;47.400;8.062;2022-09-16T19:29:43;18.00;78.00
8711;DHT22;4392;47.400;8.062;2022-09-16T19:32:10;18.00;80.40
8711;DHT22;4392;47.400;8.062;2022-09-16T19:34:37;18.30;82.80
8711;DHT22;4392;47.400;8.062;2022-09-16T19:37:03;18.00;76.10
8711;DHT22;4392;47.400;8.062;2022-09-16T19:39:34;17.60;76.60
8711;DHT22;4392;47.400;8.062;2022-09-16T19:42:02;17.20;77.70
8711;DHT22;4392;47.400;8.062;2022-09-16T19:44:36;17.10;78.90
8711;DHT22;4392;47.400;8.062;2022-09-16T19:47:08;17.00;79.60
8711;DHT22;4392;47.400;8.062;2022-09-16T19:49:35;17.10;78.40